createdAt,value
2019-03-26T00:01:35.105Z,78.00
2019-03-26T00:04:06.076Z,77.60
2019-03-26T00:06:31.055Z,77.60
2019-03-26T00:08:58.671Z,77.40
2019-03-26T00:11:26.358Z,77.40
2019-03-26T00:13:53.944Z,77.20
2019-03-26T00:16:22.673Z,76.80
2019-03-26T00:18:50.249Z,76.80
2019-03-26T00:21:17.837Z,76.80
2019-03-26T00:23:45.462Z,76.60
2019-03-26T00:26:13.038Z,76.70
2019-03-26T00:28:41.058Z,76.50
2019-03-26T00:31:08.596Z,76.60
2019-03-26T00:33:37.034Z,75.90
2019-03-26T00:36:04.516Z,75.40
2019-03-26T00:38:32.259Z,75.10
2019-03-26T00:40:59.802Z,75.30
2019-03-26T00:43:27.396Z,75.50
2019-03-26T00:45:55.000Z,74.80
2019-03-26T00:48:22.575Z,74.10
2019-03-26T00:50:50.151Z,74.00
2019-03-26T00:53:17.777Z,74.10
2019-03-26T00:55:46.122Z,74.30
2019-03-26T00:58:13.728Z,74.20
2019-03-26T01:00:41.309Z,74.10
2019-03-26T01:03:08.960Z,73.70
2019-03-26T01:05:36.541Z,73.50
2019-03-26T01:08:04.165Z,73.60
2019-03-26T01:10:31.732Z,73.60
2019-03-26T01:13:00.074Z,73.70
2019-03-26T01:15:27.755Z,73.60
2019-03-26T01:17:55.324Z,73.50
2019-03-26T01:20:23.664Z,73.70
2019-03-26T01:22:51.339Z,73.60
2019-03-26T01:25:19.617Z,73.60
2019-03-26T01:27:47.185Z,73.50
2019-03-26T01:30:14.831Z,73.50
2019-03-26T01:32:42.402Z,73.40
2019-03-26T01:35:09.973Z,72.50
2019-03-26T01:37:37.579Z,71.80
2019-03-26T01:40:05.159Z,71.90
2019-03-26T01:42:32.734Z,71.60
2019-03-26T01:45:00.380Z,71.40
2019-03-26T01:47:27.913Z,71.10
2019-03-26T01:49:56.256Z,68.50
2019-03-26T01:52:24.281Z,68.60
2019-03-26T01:54:51.855Z,69.00
2019-03-26T01:57:19.428Z,68.70
2019-03-26T01:59:47.036Z,68.40
2019-03-26T02:02:14.604Z,67.80
2019-03-26T02:04:42.946Z,68.60
2019-03-26T02:07:10.551Z,68.50
2019-03-26T02:09:38.133Z,68.60
2019-03-26T02:12:05.784Z,68.70
2019-03-26T02:14:33.331Z,68.90
2019-03-26T02:17:00.939Z,69.30
2019-03-26T02:19:28.472Z,69.70
2019-03-26T02:21:56.478Z,69.80
2019-03-26T02:24:24.052Z,70.00
2019-03-26T02:26:51.628Z,70.20
2019-03-26T02:29:19.315Z,70.40
2019-03-26T02:31:47.656Z,70.70
2019-03-26T02:34:15.231Z,70.70
2019-03-26T02:36:42.873Z,70.80
2019-03-26T02:39:10.455Z,71.00
2019-03-26T02:41:38.314Z,71.00
2019-03-26T02:44:06.399Z,69.60
2019-03-26T02:46:33.978Z,69.60
2019-03-26T02:49:02.335Z,69.80
2019-03-26T02:51:29.938Z,69.00
2019-03-26T02:53:57.528Z,69.10
2019-03-26T02:56:25.091Z,69.20
2019-03-26T02:58:53.041Z,69.40
2019-03-26T03:01:20.630Z,69.60
2019-03-26T03:03:48.208Z,69.60
2019-03-26T03:06:15.811Z,69.50
2019-03-26T03:08:43.375Z,69.70
2019-03-26T03:11:10.947Z,69.60
2019-03-26T03:13:38.555Z,69.70
2019-03-26T03:16:06.126Z,69.70
2019-03-26T03:18:33.704Z,69.30
2019-03-26T03:21:02.098Z,69.10
2019-03-26T03:23:29.670Z,69.00
2019-03-26T03:25:57.248Z,68.80
2019-03-26T03:28:24.844Z,68.80
2019-03-26T03:30:52.439Z,68.80
2019-03-26T03:33:20.782Z,68.90
2019-03-26T03:35:52.672Z,68.90
2019-03-26T03:38:15.967Z,69.00
2019-03-26T03:40:43.544Z,68.90
2019-03-26T03:43:11.209Z,69.00
2019-03-26T03:45:38.773Z,69.20
2019-03-26T03:48:06.345Z,69.10
2019-03-26T03:50:33.943Z,69.00
2019-03-26T03:53:01.596Z,68.90
2019-03-26T03:55:29.106Z,69.00
2019-03-26T03:57:56.720Z,68.90
2019-03-26T04:00:31.010Z,68.30
2019-03-26T04:02:58.576Z,68.20
2019-03-26T04:05:26.221Z,68.10
2019-03-26T04:07:53.805Z,68.00
2019-03-26T04:10:21.371Z,67.90
2019-03-26T04:12:48.982Z,68.00
2019-03-26T04:15:16.561Z,68.30
2019-03-26T04:17:44.139Z,68.00
2019-03-26T04:20:11.744Z,68.00
2019-03-26T04:22:40.086Z,67.70
2019-03-26T04:25:07.647Z,67.70
2019-03-26T04:27:35.631Z,67.70
2019-03-26T04:30:03.190Z,67.70
2019-03-26T04:32:31.129Z,67.90
2019-03-26T04:34:58.739Z,68.00
2019-03-26T04:37:27.070Z,68.40
2019-03-26T04:39:54.653Z,68.30
2019-03-26T04:42:22.266Z,68.30
2019-03-26T04:44:49.841Z,68.40
2019-03-26T04:47:17.414Z,68.50
2019-03-26T04:49:45.473Z,69.40
2019-03-26T04:52:13.046Z,68.70
2019-03-26T04:54:40.614Z,68.70
2019-03-26T04:57:08.228Z,68.90
2019-03-26T04:59:35.801Z,69.00
2019-03-26T05:02:03.376Z,69.20
2019-03-26T05:04:31.060Z,69.20
2019-03-26T05:06:58.639Z,69.20
2019-03-26T05:09:26.212Z,69.00
2019-03-26T05:11:54.423Z,68.90
2019-03-26T05:14:22.008Z,68.90
2019-03-26T05:16:49.577Z,68.80
2019-03-26T05:19:17.199Z,68.30
2019-03-26T05:21:45.543Z,68.50
2019-03-26T05:24:13.148Z,68.40
2019-03-26T05:26:40.902Z,68.50
2019-03-26T05:29:08.820Z,68.20
2019-03-26T05:31:36.366Z,68.10
2019-03-26T05:34:04.002Z,68.00
2019-03-26T05:36:32.349Z,67.30
2019-03-26T05:38:59.917Z,67.30
2019-03-26T05:41:27.526Z,67.10
2019-03-26T05:43:55.104Z,67.50
2019-03-26T05:46:22.673Z,67.70
2019-03-26T05:48:50.282Z,67.80
2019-03-26T05:51:17.889Z,68.00
2019-03-26T05:53:45.430Z,68.30
2019-03-26T05:56:13.644Z,68.20
2019-03-26T05:58:46.742Z,68.20
2019-03-26T06:01:14.488Z,69.00
2019-03-26T06:03:41.921Z,68.40
2019-03-26T06:06:09.491Z,68.10
2019-03-26T06:08:37.783Z,67.90
2019-03-26T06:11:05.406Z,67.80
2019-03-26T06:13:32.972Z,68.00
2019-03-26T06:16:00.545Z,68.20
2019-03-26T06:18:28.215Z,68.20
2019-03-26T06:20:55.785Z,68.10
2019-03-26T06:23:23.361Z,68.10
2019-03-26T06:25:50.983Z,68.10
2019-03-26T06:28:18.554Z,68.20
2019-03-26T06:30:46.126Z,68.10
2019-03-26T06:33:14.144Z,67.90
2019-03-26T06:35:41.687Z,67.90
2019-03-26T06:38:09.259Z,68.00
2019-03-26T06:40:36.886Z,68.10
2019-03-26T06:43:04.462Z,67.60
2019-03-26T06:45:32.028Z,67.50
2019-03-26T06:47:59.655Z,67.10
2019-03-26T06:50:27.227Z,66.90
2019-03-26T06:52:54.802Z,67.00
2019-03-26T06:55:22.901Z,66.80
2019-03-26T06:57:50.477Z,66.60
2019-03-26T07:00:18.060Z,66.50
2019-03-26T07:02:45.686Z,66.60
2019-03-26T07:05:13.274Z,67.50
2019-03-26T07:07:40.839Z,66.70
2019-03-26T07:10:09.230Z,65.80
2019-03-26T07:12:36.801Z,65.80
2019-03-26T07:15:04.367Z,65.90
2019-03-26T07:17:32.032Z,66.20
2019-03-26T07:19:59.603Z,66.20
2019-03-26T07:22:27.178Z,66.30
2019-03-26T07:24:54.797Z,66.40
2019-03-26T07:27:22.370Z,66.30
2019-03-26T07:29:49.951Z,66.00
2019-03-26T07:32:17.556Z,65.70
2019-03-26T07:34:45.127Z,65.70
2019-03-26T07:37:13.468Z,66.30
2019-03-26T07:39:41.432Z,65.90
2019-03-26T07:42:09.002Z,66.00
2019-03-26T07:44:36.575Z,66.20
2019-03-26T07:47:04.218Z,66.20
2019-03-26T07:49:31.789Z,65.90
2019-03-26T07:51:59.372Z,65.20
2019-03-26T07:54:27.838Z,64.90
2019-03-26T07:56:55.415Z,65.10
2019-03-26T07:59:22.992Z,65.30
2019-03-26T08:01:50.656Z,65.10
2019-03-26T08:04:19.004Z,64.50
2019-03-26T08:06:46.672Z,64.50
2019-03-26T08:09:14.704Z,64.30
2019-03-26T08:11:42.227Z,64.20
2019-03-26T08:14:10.584Z,63.10
2019-03-26T08:16:38.202Z,63.10
2019-03-26T08:19:05.783Z,63.00
2019-03-26T08:21:33.362Z,62.90
2019-03-26T08:24:01.830Z,63.00
2019-03-26T08:26:29.433Z,63.10
2019-03-26T08:28:56.993Z,63.00
2019-03-26T08:31:24.640Z,63.40
2019-03-26T08:33:52.220Z,63.70
2019-03-26T08:36:19.820Z,63.70
2019-03-26T08:38:47.447Z,63.40
2019-03-26T08:41:15.800Z,62.70
2019-03-26T08:43:43.383Z,62.60
2019-03-26T08:46:11.016Z,62.70
2019-03-26T08:48:38.600Z,62.70
2019-03-26T08:51:06.179Z,62.70
2019-03-26T08:53:34.575Z,62.60
2019-03-26T08:56:02.153Z,62.50
2019-03-26T08:58:29.732Z,62.40
2019-03-26T09:00:57.373Z,61.90
2019-03-26T09:03:24.967Z,61.80
2019-03-26T09:05:52.544Z,61.00
2019-03-26T09:08:25.205Z,61.00
2019-03-26T09:10:51.876Z,61.00
2019-03-26T09:13:15.343Z,60.70
2019-03-26T09:15:42.976Z,60.60
2019-03-26T09:18:10.556Z,61.30
2019-03-26T09:20:38.145Z,61.70
2019-03-26T09:23:05.777Z,61.30
2019-03-26T09:25:33.359Z,62.40
2019-03-26T09:28:00.944Z,60.80
2019-03-26T09:30:28.609Z,60.20
2019-03-26T09:32:56.184Z,60.10
2019-03-26T09:35:23.768Z,59.90
2019-03-26T09:37:51.388Z,60.00
2019-03-26T09:40:18.975Z,60.20
2019-03-26T09:42:46.557Z,60.00
2019-03-26T09:45:14.181Z,59.70
2019-03-26T09:47:41.757Z,59.30
2019-03-26T09:50:09.334Z,59.20
2019-03-26T09:52:36.967Z,59.40
2019-03-26T09:55:07.544Z,59.20
2019-03-26T09:57:35.123Z,59.30
2019-03-26T10:00:02.780Z,58.90
2019-03-26T10:02:30.356Z,58.90
2019-03-26T10:04:58.714Z,59.00
2019-03-26T10:07:26.336Z,59.10
2019-03-26T10:09:53.920Z,59.00
2019-03-26T10:12:21.501Z,59.00
2019-03-26T10:14:49.136Z,58.40
2019-03-26T10:17:16.716Z,58.40
2019-03-26T10:19:44.295Z,58.20
2019-03-26T10:22:11.923Z,57.60
2019-03-26T10:24:39.499Z,57.40
2019-03-26T10:27:07.074Z,57.30
2019-03-26T10:29:34.757Z,57.00
2019-03-26T10:32:02.337Z,56.70
2019-03-26T10:34:29.909Z,56.80
2019-03-26T10:36:57.541Z,56.50
2019-03-26T10:39:25.441Z,55.50
2019-03-26T10:41:53.021Z,55.30
2019-03-26T10:44:20.648Z,55.50
2019-03-26T10:46:48.562Z,55.90
2019-03-26T10:49:16.138Z,55.30
2019-03-26T10:51:43.797Z,55.30
2019-03-26T10:54:11.381Z,54.80
2019-03-26T10:56:38.961Z,53.00
2019-03-26T10:59:06.840Z,51.60
2019-03-26T11:01:34.434Z,51.70
2019-03-26T11:04:02.024Z,52.20
2019-03-26T11:06:29.653Z,52.20
2019-03-26T11:08:57.238Z,52.60
2019-03-26T11:11:24.827Z,52.60
2019-03-26T11:13:53.987Z,53.40
2019-03-26T11:16:21.564Z,53.40
2019-03-26T11:18:49.152Z,53.40
2019-03-26T11:21:17.625Z,53.40
2019-03-26T11:23:45.217Z,53.30
2019-03-26T11:26:12.800Z,53.00
2019-03-26T11:28:40.503Z,52.60
2019-03-26T11:31:08.085Z,52.70
2019-03-26T11:33:36.438Z,52.80
2019-03-26T11:36:04.085Z,52.80
2019-03-26T11:38:31.665Z,52.40
2019-03-26T11:40:59.248Z,51.60
2019-03-26T11:43:27.642Z,52.00
2019-03-26T11:45:55.992Z,51.60
2019-03-26T11:48:23.574Z,51.60
2019-03-26T11:50:51.977Z,51.20
2019-03-26T11:53:19.556Z,51.20
2019-03-26T11:55:47.147Z,50.70
2019-03-26T11:58:14.772Z,50.50
2019-03-26T12:00:42.768Z,50.40
2019-03-26T12:03:10.349Z,49.70
2019-03-26T12:05:38.054Z,50.10
2019-03-26T12:08:05.641Z,50.10
2019-03-26T12:10:33.223Z,49.80
2019-03-26T12:13:00.860Z,49.80
2019-03-26T12:15:28.440Z,50.00
2019-03-26T12:17:56.022Z,50.20
2019-03-26T12:20:23.658Z,50.30
2019-03-26T12:22:51.249Z,50.10
2019-03-26T12:25:18.830Z,49.70
2019-03-26T12:27:47.697Z,49.30
2019-03-26T12:30:15.278Z,49.20
2019-03-26T12:32:42.867Z,49.00
2019-03-26T12:35:10.510Z,48.50
2019-03-26T12:37:38.087Z,48.30
2019-03-26T12:40:08.338Z,48.90
2019-03-26T12:42:35.974Z,49.10
2019-03-26T12:45:06.665Z,49.00
2019-03-26T12:47:31.137Z,49.30
2019-03-26T12:49:58.764Z,48.90
2019-03-26T12:52:26.343Z,48.60
2019-03-26T12:54:54.131Z,47.80
2019-03-26T12:57:22.235Z,47.10
2019-03-26T12:59:50.586Z,47.70
2019-03-26T13:02:18.169Z,47.30
2019-03-26T13:04:45.800Z,47.40
2019-03-26T13:07:13.378Z,47.50
2019-03-26T13:09:42.036Z,47.20
2019-03-26T13:12:08.601Z,47.30
2019-03-26T13:14:36.175Z,47.50
2019-03-26T13:17:03.756Z,47.90
2019-03-26T13:19:32.174Z,47.30
2019-03-26T13:21:59.756Z,47.30
2019-03-26T13:24:27.339Z,46.60
2019-03-26T13:26:55.411Z,46.10
2019-03-26T13:29:22.991Z,45.90
2019-03-26T13:31:51.346Z,46.30
2019-03-26T13:34:19.061Z,45.60
2019-03-26T13:36:46.645Z,45.80
2019-03-26T13:39:14.729Z,46.30
2019-03-26T13:41:42.360Z,46.00
2019-03-26T13:44:09.940Z,46.50
2019-03-26T13:46:37.522Z,46.40
2019-03-26T13:49:05.935Z,46.70
2019-03-26T13:51:33.526Z,47.20
2019-03-26T13:54:01.111Z,47.50
2019-03-26T13:56:28.736Z,47.30
2019-03-26T13:58:57.081Z,47.60
2019-03-26T14:01:24.663Z,47.60
2019-03-26T14:03:52.355Z,47.30
2019-03-26T14:06:19.934Z,47.50
2019-03-26T14:08:47.523Z,46.10
2019-03-26T14:11:15.145Z,45.70
2019-03-26T14:13:42.740Z,45.80
2019-03-26T14:16:10.307Z,46.00
2019-03-26T14:18:37.941Z,46.10
2019-03-26T14:21:05.536Z,46.30
2019-03-26T14:23:33.383Z,46.20
2019-03-26T14:26:01.048Z,46.30
2019-03-26T14:28:28.629Z,46.50
2019-03-26T14:30:56.681Z,46.20
2019-03-26T14:33:24.373Z,46.60
2019-03-26T14:35:51.952Z,46.30
2019-03-26T14:38:19.532Z,46.10
2019-03-26T14:40:54.756Z,46.30
2019-03-26T14:43:14.744Z,46.50
2019-03-26T14:45:43.175Z,46.70
2019-03-26T14:48:11.068Z,46.60
2019-03-26T14:50:38.663Z,47.20
2019-03-26T14:53:07.010Z,47.60
2019-03-26T14:55:34.648Z,47.60
2019-03-26T14:58:02.234Z,47.30
2019-03-26T15:00:29.811Z,47.20
2019-03-26T15:02:58.208Z,47.50
2019-03-26T15:05:26.555Z,47.30
2019-03-26T15:07:54.136Z,47.30
2019-03-26T15:10:23.625Z,49.10
2019-03-26T15:12:50.128Z,48.40
2019-03-26T15:15:17.713Z,46.70
2019-03-26T15:17:45.352Z,46.30
2019-03-26T15:20:12.933Z,46.60
2019-03-26T15:22:40.516Z,47.30
2019-03-26T15:25:08.170Z,48.30
2019-03-26T15:27:35.730Z,48.80
2019-03-26T15:30:03.314Z,48.60
2019-03-26T15:32:31.716Z,49.20
2019-03-26T15:34:59.301Z,49.70
2019-03-26T15:37:26.872Z,49.10
2019-03-26T15:39:55.392Z,49.10
2019-03-26T15:42:23.527Z,48.60
2019-03-26T15:44:51.114Z,48.40
2019-03-26T15:47:18.742Z,48.60
2019-03-26T15:49:46.330Z,48.80
2019-03-26T15:52:13.904Z,48.80
2019-03-26T15:54:41.704Z,48.80
2019-03-26T15:57:10.058Z,49.10
2019-03-26T15:59:37.638Z,49.00
2019-03-26T16:02:06.034Z,49.40
2019-03-26T16:04:33.645Z,49.40
2019-03-26T16:07:01.233Z,49.40
2019-03-26T16:09:29.696Z,50.40
2019-03-26T16:11:57.276Z,50.40
2019-03-26T16:14:28.052Z,51.30
2019-03-26T16:16:53.243Z,51.20
2019-03-26T16:19:32.108Z,51.80
2019-03-26T16:21:48.527Z,51.70
2019-03-26T16:24:16.070Z,52.10
2019-03-26T16:26:43.705Z,52.50
2019-03-26T16:29:11.265Z,53.00
2019-03-26T16:31:38.955Z,53.40
2019-03-26T16:34:06.521Z,53.70
2019-03-26T16:36:34.108Z,54.10
2019-03-26T16:39:01.808Z,54.40
2019-03-26T16:41:29.363Z,54.80
2019-03-26T16:43:56.974Z,55.00
2019-03-26T16:46:24.693Z,55.20
2019-03-26T16:48:52.298Z,55.40
2019-03-26T16:51:19.974Z,55.40
2019-03-26T16:53:47.523Z,55.60
2019-03-26T16:56:15.099Z,55.90
2019-03-26T16:58:42.682Z,56.00
2019-03-26T17:01:11.560Z,55.40
2019-03-26T17:03:39.125Z,55.40
2019-03-26T17:06:07.477Z,56.00
2019-03-26T17:08:35.103Z,56.00
2019-03-26T17:11:02.680Z,56.10
2019-03-26T17:13:30.264Z,56.60
2019-03-26T17:15:57.888Z,56.40
2019-03-26T17:18:25.471Z,56.60
2019-03-26T17:20:53.339Z,56.80
2019-03-26T17:23:20.964Z,57.10
2019-03-26T17:25:48.543Z,57.30
2019-03-26T17:28:16.126Z,57.30
2019-03-26T17:30:43.749Z,57.30
2019-03-26T17:33:11.348Z,57.40
2019-03-26T17:35:38.930Z,57.60
2019-03-26T17:38:06.634Z,57.70
2019-03-26T17:40:34.978Z,58.30
2019-03-26T17:43:02.603Z,58.30
2019-03-26T17:45:30.310Z,58.10
2019-03-26T17:47:57.945Z,58.20
2019-03-26T17:50:25.519Z,58.30
2019-03-26T17:52:53.159Z,58.50
2019-03-26T17:55:20.735Z,58.70
2019-03-26T17:57:48.317Z,58.90
2019-03-26T18:00:15.988Z,59.00
2019-03-26T18:02:43.572Z,59.10
2019-03-26T18:05:27.141Z,59.40
2019-03-26T18:07:54.728Z,59.40
2019-03-26T18:10:22.305Z,59.30
2019-03-26T18:12:49.937Z,59.20
2019-03-26T18:15:17.518Z,59.30
2019-03-26T18:17:45.100Z,59.40
2019-03-26T18:20:12.727Z,59.30
2019-03-26T18:22:40.321Z,59.30
2019-03-26T18:25:07.913Z,58.90
2019-03-26T18:27:36.074Z,58.90
2019-03-26T18:30:03.684Z,58.90
2019-03-26T18:32:31.226Z,58.80
2019-03-26T18:34:58.944Z,58.90
2019-03-26T18:37:26.529Z,59.00
2019-03-26T18:39:55.160Z,59.30
2019-03-26T18:42:22.867Z,59.30
2019-03-26T18:44:51.227Z,59.60
2019-03-26T18:47:18.819Z,59.60
2019-03-26T18:49:47.236Z,59.70
2019-03-26T18:52:14.837Z,59.60
2019-03-26T18:54:42.429Z,60.10
2019-03-26T18:57:10.064Z,59.70
2019-03-26T18:59:37.649Z,59.80
2019-03-26T19:02:05.242Z,59.80
2019-03-26T19:04:32.889Z,60.00
2019-03-26T19:07:00.471Z,60.30
2019-03-26T19:09:28.066Z,60.60
2019-03-26T19:11:55.787Z,60.70
2019-03-26T19:14:24.114Z,61.10
2019-03-26T19:16:51.712Z,61.10
2019-03-26T19:19:19.346Z,61.30
2019-03-26T19:21:46.931Z,61.30
2019-03-26T19:24:15.337Z,61.50
2019-03-26T19:26:43.040Z,61.50
2019-03-26T19:29:10.622Z,61.60
2019-03-26T19:31:38.968Z,62.20
2019-03-26T19:34:06.611Z,62.20
2019-03-26T19:36:34.199Z,61.80
2019-03-26T19:39:01.786Z,61.80
2019-03-26T19:41:29.414Z,62.00
2019-03-26T19:43:56.999Z,62.00
2019-03-26T19:46:24.579Z,62.00
2019-03-26T19:48:52.209Z,62.00
2019-03-26T19:51:19.792Z,62.00
2019-03-26T19:53:47.386Z,62.10
2019-03-26T19:56:15.051Z,62.50
2019-03-26T19:58:42.594Z,61.90
2019-03-26T20:01:10.175Z,61.90
2019-03-26T20:03:37.813Z,62.00
2019-03-26T20:06:13.215Z,62.20
2019-03-26T20:08:34.205Z,62.50
2019-03-26T20:11:01.835Z,62.90
2019-03-26T20:13:30.182Z,63.30
2019-03-26T20:15:57.865Z,63.40
2019-03-26T20:18:25.520Z,63.50
2019-03-26T20:20:53.098Z,63.80
2019-03-26T20:23:21.447Z,63.30
2019-03-26T20:25:49.069Z,63.20
2019-03-26T20:28:16.959Z,62.90
2019-03-26T20:30:44.560Z,63.70
2019-03-26T20:33:13.105Z,63.40
2019-03-26T20:35:40.617Z,63.40
2019-03-26T20:38:08.963Z,63.70
2019-03-26T20:40:36.632Z,63.70
2019-03-26T20:43:04.360Z,63.80
2019-03-26T20:45:31.855Z,64.00
2019-03-26T20:47:59.525Z,64.00
2019-03-26T20:50:27.102Z,64.40
2019-03-26T20:52:55.450Z,63.80
2019-03-26T20:55:23.081Z,63.70
2019-03-26T20:57:50.663Z,64.60
2019-03-26T21:00:23.864Z,64.00
2019-03-26T21:02:51.579Z,64.10
2019-03-26T21:05:19.156Z,64.20
2019-03-26T21:07:47.921Z,64.40
2019-03-26T21:10:14.733Z,64.50
2019-03-26T21:12:42.319Z,64.60
2019-03-26T21:15:10.671Z,65.60
2019-03-26T21:17:38.336Z,65.60
2019-03-26T21:20:05.917Z,64.90
2019-03-26T21:22:34.272Z,66.10
2019-03-26T21:25:01.951Z,65.30
2019-03-26T21:27:29.532Z,64.80
2019-03-26T21:30:10.225Z,64.80
2019-03-26T21:32:25.541Z,64.60
2019-03-26T21:34:53.172Z,65.00
2019-03-26T21:37:21.480Z,65.50
2019-03-26T21:39:49.159Z,65.50
2019-03-26T21:42:16.741Z,66.40
2019-03-26T21:44:45.085Z,65.80
2019-03-26T21:47:12.774Z,65.70
2019-03-26T21:49:41.134Z,65.70
2019-03-26T21:52:08.716Z,66.10
2019-03-26T21:54:37.107Z,66.20
2019-03-26T21:57:05.464Z,66.10
2019-03-26T21:59:33.048Z,66.00
2019-03-26T22:02:02.036Z,66.10
2019-03-26T22:04:30.388Z,66.30
2019-03-26T22:06:57.981Z,66.20
2019-03-26T22:09:27.370Z,66.40
2019-03-26T22:11:54.951Z,66.40
2019-03-26T22:14:23.297Z,66.20
2019-03-26T22:16:50.970Z,66.20
2019-03-26T22:19:28.526Z,66.10
2019-03-26T22:21:46.903Z,66.20
2019-03-26T22:24:17.021Z,66.20
2019-03-26T22:26:42.121Z,66.40
2019-03-26T22:29:09.704Z,67.60
2019-03-26T22:31:37.313Z,67.00
2019-03-26T22:34:04.905Z,67.00
2019-03-26T22:36:32.489Z,67.20
2019-03-26T22:39:00.879Z,68.20
2019-03-26T22:41:29.221Z,68.00
2019-03-26T22:43:56.807Z,68.00
2019-03-26T22:46:24.466Z,68.30
2019-03-26T22:48:52.057Z,68.40
2019-03-26T22:51:20.395Z,68.50
2019-03-26T22:53:48.072Z,68.50
2019-03-26T22:56:15.702Z,68.80
2019-03-26T22:58:43.314Z,68.80
2019-03-26T23:01:10.868Z,69.40
2019-03-26T23:03:39.211Z,68.80
2019-03-26T23:06:06.791Z,68.90
2019-03-26T23:08:34.429Z,69.00
2019-03-26T23:11:02.298Z,69.00
2019-03-26T23:13:29.883Z,69.60
2019-03-26T23:15:57.527Z,69.20
2019-03-26T23:18:25.107Z,69.30
2019-03-26T23:20:52.687Z,69.50
2019-03-26T23:23:20.403Z,69.80
2019-03-26T23:25:47.946Z,70.20
2019-03-26T23:28:15.577Z,69.90
2019-03-26T23:30:43.911Z,70.00
2019-03-26T23:33:11.494Z,70.10
2019-03-26T23:35:39.073Z,70.30
2019-03-26T23:38:07.456Z,70.40
2019-03-26T23:40:35.035Z,70.60
2019-03-26T23:43:03.384Z,70.90
2019-03-26T23:45:30.997Z,70.80
2019-03-26T23:47:58.577Z,71.00
2019-03-26T23:50:26.165Z,71.60
2019-03-26T23:52:53.791Z,71.00
2019-03-26T23:55:21.375Z,70.90
2019-03-26T23:57:48.952Z,71.00
